Terminal Aerodrome Forecast
Issued by NWS

Home | Current Version | Previous Version | Graphics & Text | Print | Product List | Glossary On
Versions: 1 2 3 4 5 6 7 8 9 10 11 12 13 14 15 16 17 18 19 20 21 22
000
FTUS41 KCLE 270217 AAB
TAFFDY
TAF AMD
KFDY 270217Z 2702/2724 12006KT 6SM -SHRA SCT025 OVC050
      TEMPO 2703/2705 2SM -TSRA OVC025CB
     FM270500 12008KT 6SM -SHRA OVC015
      TEMPO 2709/2713 3SM BR OVC008
     FM271600 04007KT P6SM BKN045
     FM272000 03006KT P6SM SCT035 BKN100=

USA.gov is the U.S. government's official web portal to all federal, state and local government web resources and services.